createdAt,value
2022-10-13T00:01:12.489Z,24.83
2022-10-13T00:03:58.977Z,21.90
2022-10-13T00:06:45.233Z,27.00
2022-10-13T00:09:31.697Z,29.90
2022-10-13T00:12:17.764Z,28.63
2022-10-13T00:15:04.287Z,28.20
2022-10-13T00:17:50.189Z,23.40
2022-10-13T00:20:36.493Z,29.03
2022-10-13T00:23:22.784Z,22.30
2022-10-13T00:26:10.176Z,25.10
2022-10-13T00:28:57.672Z,27.57
2022-10-13T00:31:43.817Z,27.97
2022-10-13T00:34:29.395Z,26.57
2022-10-13T00:37:15.323Z,28.30
2022-10-13T00:40:01.033Z,27.97
2022-10-13T00:42:47.338Z,28.63
2022-10-13T00:45:33.393Z,26.40
2022-10-13T00:48:30.754Z,30.70
2022-10-13T00:51:18.596Z,31.13
2022-10-13T00:54:06.649Z,26.70
2022-10-13T00:56:53.323Z,22.77
2022-10-13T00:59:39.823Z,24.53
2022-10-13T01:02:28.477Z,27.00
2022-10-13T01:05:15.203Z,29.40
2022-10-13T01:08:01.724Z,25.90
2022-10-13T01:10:59.764Z,20.97
2022-10-13T01:14:04.725Z,19.17
2022-10-13T01:16:55.014Z,21.60
2022-10-13T01:19:44.542Z,23.87
2022-10-13T01:22:44.936Z,24.50
2022-10-13T01:25:49.304Z,25.83
2022-10-13T01:28:36.001Z,23.20
2022-10-13T01:31:25.651Z,25.80
2022-10-13T01:34:19.226Z,23.07
2022-10-13T01:37:04.996Z,26.53
2022-10-13T01:39:57.334Z,33.97
2022-10-13T01:42:43.284Z,25.80
2022-10-13T01:45:39.502Z,30.67
2022-10-13T01:48:28.149Z,23.20
2022-10-13T01:51:15.954Z,25.73
2022-10-13T01:54:02.451Z,24.90
2022-10-13T01:56:55.504Z,26.67
2022-10-13T01:59:41.669Z,24.10
2022-10-13T02:02:33.775Z,26.50
2022-10-13T02:05:27.661Z,30.60
2022-10-13T02:08:26.195Z,27.93
2022-10-13T02:11:15.087Z,28.10
2022-10-13T02:14:04.577Z,20.80
2022-10-13T02:16:51.650Z,25.33
2022-10-13T02:19:38.635Z,22.70
2022-10-13T02:22:28.356Z,25.20
2022-10-13T02:25:14.621Z,28.50
2022-10-13T02:28:01.185Z,24.00
2022-10-13T02:30:51.061Z,23.90
2022-10-13T02:33:36.950Z,25.23
2022-10-13T02:36:22.624Z,23.97
2022-10-13T02:39:09.613Z,27.47
2022-10-13T02:41:56.047Z,24.40
2022-10-13T02:44:42.220Z,22.47
2022-10-13T02:47:28.054Z,25.30
2022-10-13T02:50:13.881Z,32.97
2022-10-13T02:53:00.036Z,27.90
2022-10-13T02:55:46.035Z,24.10
2022-10-13T02:58:32.108Z,21.50
2022-10-13T03:01:20.385Z,23.90
2022-10-13T03:04:06.355Z,24.50
2022-10-13T03:06:52.544Z,23.10
2022-10-13T03:09:38.926Z,26.57
2022-10-13T03:12:25.090Z,29.33
2022-10-13T03:15:11.321Z,29.07
2022-10-13T03:17:57.442Z,28.17
2022-10-13T03:20:43.545Z,29.00
2022-10-13T03:23:29.748Z,27.67
2022-10-13T03:26:16.280Z,37.17
2022-10-13T03:29:04.613Z,24.57
2022-10-13T03:31:50.824Z,27.73
2022-10-13T03:34:37.115Z,24.93
2022-10-13T03:37:23.144Z,27.60
2022-10-13T03:40:09.942Z,23.40
2022-10-13T03:42:55.805Z,24.73
2022-10-13T03:45:41.356Z,22.63
2022-10-13T03:48:27.436Z,18.53
2022-10-13T03:51:18.762Z,24.20
2022-10-13T03:54:04.914Z,24.43
2022-10-13T03:56:50.950Z,24.70
2022-10-13T03:59:37.260Z,24.10
2022-10-13T04:02:23.211Z,25.90
2022-10-13T04:05:11.844Z,31.17
2022-10-13T04:07:58.021Z,30.57
2022-10-13T04:10:46.394Z,34.77
2022-10-13T04:13:32.465Z,33.20
2022-10-13T04:16:20.517Z,34.87
2022-10-13T04:19:06.525Z,36.40
2022-10-13T04:21:52.831Z,35.07
2022-10-13T04:24:38.534Z,32.07
2022-10-13T04:27:24.749Z,31.43
2022-10-13T04:30:13.499Z,44.40
2022-10-13T04:32:59.802Z,32.03
2022-10-13T04:35:45.763Z,33.47
2022-10-13T04:38:31.573Z,34.73
2022-10-13T04:41:18.394Z,33.67
2022-10-13T04:44:04.229Z,29.23
2022-10-13T04:46:49.818Z,30.70
2022-10-13T04:49:36.127Z,26.40
2022-10-13T04:52:22.027Z,30.47
2022-10-13T04:55:09.031Z,27.80
2022-10-13T04:57:55.237Z,26.47
2022-10-13T05:00:42.431Z,28.20
2022-10-13T05:03:28.480Z,20.40
2022-10-13T05:06:20.193Z,21.90
2022-10-13T05:09:12.018Z,23.27
2022-10-13T05:11:57.816Z,21.23
2022-10-13T05:14:43.563Z,22.23
2022-10-13T05:17:35.047Z,23.53
2022-10-13T05:20:24.686Z,24.03
2022-10-13T05:23:11.309Z,18.30
2022-10-13T05:25:57.082Z,24.30
2022-10-13T05:28:44.189Z,22.10
2022-10-13T05:31:30.537Z,21.07
2022-10-13T05:34:16.504Z,19.63
2022-10-13T05:37:02.478Z,22.27
2022-10-13T05:39:49.577Z,25.60
2022-10-13T05:42:37.738Z,22.77
2022-10-13T05:45:24.067Z,26.67
2022-10-13T05:48:09.933Z,22.67
2022-10-13T05:50:56.265Z,21.40
2022-10-13T05:53:49.584Z,21.50
2022-10-13T05:56:39.709Z,29.80
2022-10-13T05:59:27.258Z,28.00
2022-10-13T06:02:15.125Z,27.40
2022-10-13T06:05:00.846Z,24.53
2022-10-13T06:07:48.092Z,22.70
2022-10-13T06:10:33.992Z,23.63
2022-10-13T06:13:20.011Z,29.10
2022-10-13T06:16:05.805Z,23.83
2022-10-13T06:18:51.539Z,26.17
2022-10-13T06:21:40.404Z,23.07
2022-10-13T06:24:26.871Z,20.50
2022-10-13T06:27:12.827Z,20.80
2022-10-13T06:30:00.167Z,22.70
2022-10-13T06:32:46.139Z,27.63
2022-10-13T06:35:32.936Z,30.43
2022-10-13T06:38:19.954Z,26.13
2022-10-13T06:41:07.419Z,26.37
2022-10-13T06:43:55.756Z,26.03
2022-10-13T06:46:41.455Z,22.20
2022-10-13T06:49:27.502Z,42.30
2022-10-13T06:52:13.269Z,39.93
2022-10-13T06:54:59.394Z,29.70
2022-10-13T06:57:48.285Z,29.10
2022-10-13T07:00:35.333Z,24.90
2022-10-13T07:03:21.414Z,27.33
2022-10-13T07:06:08.046Z,25.90
2022-10-13T07:08:54.276Z,25.17
2022-10-13T07:11:40.161Z,23.67
2022-10-13T07:14:26.091Z,26.20
2022-10-13T07:17:12.283Z,22.70
2022-10-13T07:20:02.322Z,30.90
2022-10-13T07:22:56.074Z,26.90
2022-10-13T07:25:44.845Z,26.50
2022-10-13T07:28:30.537Z,26.13
2022-10-13T07:31:17.764Z,28.43
2022-10-13T07:34:04.852Z,24.50
2022-10-13T07:36:50.940Z,37.60
2022-10-13T07:39:36.821Z,32.57
2022-10-13T07:42:22.855Z,25.90
2022-10-13T07:45:09.089Z,26.20
2022-10-13T07:47:54.564Z,32.30
2022-10-13T07:50:40.435Z,29.37
2022-10-13T07:53:26.001Z,31.40
2022-10-13T07:56:13.254Z,28.90
2022-10-13T07:59:02.560Z,26.50
2022-10-13T08:01:48.493Z,34.33
2022-10-13T08:04:35.749Z,28.23
2022-10-13T08:07:24.693Z,32.23
2022-10-13T08:10:10.580Z,32.37
2022-10-13T08:12:56.289Z,31.00
2022-10-13T08:15:42.679Z,33.53
2022-10-13T08:18:30.325Z,34.43
2022-10-13T08:24:25.641Z,30.90
2022-10-13T08:27:18.176Z,28.57
2022-10-13T08:30:06.149Z,33.30
2022-10-13T08:32:52.674Z,40.70
2022-10-13T08:35:38.556Z,35.43
2022-10-13T08:38:24.050Z,36.30
2022-10-13T08:41:21.724Z,33.83
2022-10-13T08:47:43.642Z,35.63
2022-10-13T08:50:32.398Z,37.60
2022-10-13T08:53:24.163Z,41.57
2022-10-13T08:56:11.183Z,41.47
2022-10-13T08:59:01.902Z,39.50
2022-10-13T09:01:49.265Z,35.03
2022-10-13T09:04:41.535Z,38.47
2022-10-13T09:07:29.147Z,36.80
2022-10-13T09:10:15.393Z,36.07
2022-10-13T09:13:01.414Z,40.60
2022-10-13T09:15:48.556Z,41.77
2022-10-13T09:18:39.976Z,40.63
2022-10-13T09:21:33.824Z,41.47
2022-10-13T09:24:20.843Z,39.77
2022-10-13T09:27:12.179Z,40.17
2022-10-13T09:29:58.527Z,40.20
2022-10-13T09:32:44.485Z,46.80
2022-10-13T09:35:32.061Z,45.77
2022-10-13T09:38:20.081Z,46.77
2022-10-13T09:41:06.302Z,46.30
2022-10-13T09:43:54.875Z,41.00
2022-10-13T09:46:50.852Z,41.10
2022-10-13T09:49:43.398Z,41.90
2022-10-13T09:52:29.321Z,46.27
2022-10-13T09:55:32.566Z,43.77
2022-10-13T09:58:25.672Z,39.83
2022-10-13T10:01:20.098Z,53.40
2022-10-13T10:04:10.171Z,41.87
2022-10-13T10:06:56.190Z,47.43
2022-10-13T10:09:44.820Z,52.13
2022-10-13T10:12:34.734Z,49.00
2022-10-13T10:15:33.657Z,38.00
2022-10-13T10:18:43.348Z,41.47
2022-10-13T10:21:32.001Z,42.27
2022-10-13T10:24:25.704Z,42.67
2022-10-13T10:27:22.136Z,45.63
2022-10-13T10:30:17.346Z,47.73
2022-10-13T10:33:18.394Z,43.10
2022-10-13T10:36:17.148Z,40.67
2022-10-13T10:39:40.917Z,45.60
2022-10-13T10:42:42.673Z,39.77
2022-10-13T10:45:31.103Z,37.60
2022-10-13T10:48:23.541Z,40.20
2022-10-13T10:51:11.291Z,38.03
2022-10-13T10:54:16.170Z,37.50
2022-10-13T10:57:09.725Z,34.07
2022-10-13T11:00:05.451Z,39.33
2022-10-13T11:02:57.767Z,41.47
2022-10-13T11:05:59.301Z,41.10
2022-10-13T11:08:49.159Z,35.20
2022-10-13T11:11:38.914Z,36.10
2022-10-13T11:14:31.168Z,36.17
2022-10-13T11:17:17.353Z,38.83
2022-10-13T11:20:26.339Z,40.53
2022-10-13T11:23:15.239Z,37.17
2022-10-13T11:26:19.923Z,36.83
2022-10-13T11:29:16.253Z,34.20
2022-10-13T11:32:01.833Z,35.60
2022-10-13T11:34:58.464Z,36.93
2022-10-13T11:38:07.195Z,36.13
2022-10-13T11:41:04.672Z,32.37
2022-10-13T11:44:02.120Z,35.40
2022-10-13T11:47:09.000Z,36.53
2022-10-13T11:50:01.442Z,35.63
2022-10-13T11:52:55.232Z,32.27
2022-10-13T11:55:44.584Z,31.40
2022-10-13T11:58:32.422Z,30.87
2022-10-13T12:01:19.888Z,27.53
2022-10-13T12:04:13.421Z,25.10
2022-10-13T12:07:01.363Z,24.27
2022-10-13T12:09:53.087Z,26.00
2022-10-13T12:12:47.621Z,26.63
2022-10-13T12:15:35.363Z,26.00
2022-10-13T12:18:23.430Z,25.27
2022-10-13T12:21:13.640Z,28.10
2022-10-13T12:24:07.571Z,25.23
2022-10-13T12:26:53.851Z,24.20
2022-10-13T12:29:41.379Z,22.53
2022-10-13T12:32:29.152Z,21.43
2022-10-13T12:35:26.374Z,22.80
2022-10-13T12:38:16.608Z,19.27
2022-10-13T12:41:03.183Z,21.30
2022-10-13T12:43:48.975Z,18.00
2022-10-13T12:46:42.268Z,23.57
2022-10-13T12:49:29.394Z,20.70
2022-10-13T12:52:24.537Z,21.70
2022-10-13T12:55:15.093Z,20.17
2022-10-13T12:58:01.405Z,22.87
2022-10-13T13:00:55.390Z,20.63
2022-10-13T13:03:42.662Z,21.60
2022-10-13T13:06:37.916Z,24.53
2022-10-13T13:09:25.679Z,19.40
2022-10-13T13:12:11.839Z,23.77
2022-10-13T13:14:57.999Z,25.27
2022-10-13T13:17:57.894Z,22.30
2022-10-13T13:20:44.667Z,26.03
2022-10-13T13:23:34.307Z,20.07
2022-10-13T13:26:23.771Z,26.70
2022-10-13T13:29:10.663Z,23.23
2022-10-13T13:31:56.255Z,21.73
2022-10-13T13:34:42.156Z,28.43
2022-10-13T13:37:34.589Z,24.40
2022-10-13T13:40:21.588Z,23.23
2022-10-13T13:43:08.846Z,26.57
2022-10-13T13:45:54.706Z,25.10
2022-10-13T13:48:41.006Z,25.33
2022-10-13T13:51:26.839Z,23.63
2022-10-13T13:54:12.615Z,26.73
2022-10-13T13:56:59.062Z,25.50
2022-10-13T13:59:46.290Z,29.50
2022-10-13T14:02:32.091Z,21.97
2022-10-13T14:05:18.268Z,26.57
2022-10-13T14:08:03.994Z,24.07
2022-10-13T14:10:50.038Z,26.27
2022-10-13T14:13:37.153Z,25.57
2022-10-13T14:16:22.615Z,22.60
2022-10-13T14:19:10.708Z,25.93
2022-10-13T14:21:56.608Z,24.17
2022-10-13T14:24:42.442Z,32.73
2022-10-13T14:27:30.802Z,24.87
2022-10-13T14:30:19.155Z,24.40
2022-10-13T14:33:05.270Z,23.60
2022-10-13T14:35:50.722Z,23.63
2022-10-13T14:38:37.431Z,31.10
2022-10-13T14:41:23.158Z,22.93
2022-10-13T14:44:11.705Z,26.03
2022-10-13T14:47:05.018Z,25.30
2022-10-13T14:49:50.724Z,24.47
2022-10-13T14:52:36.559Z,25.97
2022-10-13T14:55:22.327Z,24.73
2022-10-13T14:58:08.311Z,24.60
2022-10-13T15:00:55.418Z,24.90
2022-10-13T15:03:41.333Z,23.17
2022-10-13T15:06:27.220Z,24.87
2022-10-13T15:09:13.051Z,29.47
2022-10-13T15:11:58.978Z,36.07
2022-10-13T15:14:44.770Z,24.80
2022-10-13T15:17:31.472Z,28.00
2022-10-13T15:20:17.135Z,27.53
2022-10-13T15:23:02.933Z,31.70
2022-10-13T15:25:51.529Z,23.87
2022-10-13T15:28:40.941Z,25.50
2022-10-13T15:31:30.924Z,20.93
2022-10-13T15:34:16.390Z,25.00
2022-10-13T15:37:03.281Z,20.93
2022-10-13T15:39:56.948Z,22.47
2022-10-13T15:42:45.155Z,23.80
2022-10-13T15:45:30.785Z,22.23
2022-10-13T15:48:17.831Z,20.10
2022-10-13T15:51:09.375Z,21.33
2022-10-13T15:53:55.300Z,22.30
2022-10-13T15:56:42.568Z,27.80
2022-10-13T15:59:28.320Z,28.70
2022-10-13T16:02:14.257Z,32.20
2022-10-13T16:05:05.769Z,27.60
2022-10-13T16:07:51.407Z,25.57
2022-10-13T16:10:41.383Z,30.37
2022-10-13T16:13:29.481Z,24.70
2022-10-13T16:16:16.455Z,28.60
2022-10-13T16:19:01.892Z,30.30
2022-10-13T16:21:47.713Z,30.90
2022-10-13T16:24:34.119Z,32.67
2022-10-13T16:27:19.575Z,28.63
2022-10-13T16:30:05.519Z,37.53
2022-10-13T16:32:51.224Z,34.03
2022-10-13T16:35:37.457Z,36.17
2022-10-13T16:38:25.422Z,38.80
2022-10-13T16:41:14.364Z,37.03
2022-10-13T16:44:00.439Z,34.43
2022-10-13T16:46:49.037Z,35.40
2022-10-13T16:49:34.947Z,40.60
2022-10-13T16:52:21.726Z,36.50
2022-10-13T16:55:08.090Z,41.03
2022-10-13T16:57:53.675Z,37.67
2022-10-13T17:00:41.318Z,36.73
2022-10-13T17:03:28.692Z,43.37
2022-10-13T17:06:15.064Z,36.87
2022-10-13T17:09:03.167Z,39.57
2022-10-13T17:11:49.480Z,42.40
2022-10-13T17:14:35.322Z,43.07
2022-10-13T17:17:21.572Z,39.50
2022-10-13T17:20:07.576Z,41.13
2022-10-13T17:22:56.073Z,42.37
2022-10-13T17:25:41.842Z,44.17
2022-10-13T17:28:27.732Z,45.70
2022-10-13T17:31:15.751Z,52.13
2022-10-13T17:34:01.921Z,47.17
2022-10-13T17:36:47.881Z,42.90
2022-10-13T17:39:33.802Z,41.73
2022-10-13T17:42:19.692Z,46.10
2022-10-13T17:45:06.303Z,40.90
2022-10-13T17:47:52.285Z,42.23
2022-10-13T17:50:40.875Z,46.50
2022-10-13T17:53:26.827Z,43.70
2022-10-13T17:56:13.856Z,38.63
2022-10-13T17:59:00.557Z,43.57
2022-10-13T18:01:46.532Z,43.43
2022-10-13T18:04:32.276Z,44.23
2022-10-13T18:07:18.426Z,47.50
2022-10-13T18:10:05.379Z,41.50
2022-10-13T18:12:51.114Z,41.53
2022-10-13T18:15:38.040Z,46.80
2022-10-13T18:18:24.127Z,39.37
2022-10-13T18:21:11.382Z,43.27
2022-10-13T18:23:58.696Z,42.73
2022-10-13T18:26:44.328Z,43.30
2022-10-13T18:29:31.649Z,43.60
2022-10-13T18:32:17.283Z,42.77
2022-10-13T18:35:03.153Z,48.33
2022-10-13T18:37:52.755Z,48.67
2022-10-13T18:40:39.128Z,45.77
2022-10-13T18:43:25.008Z,47.63
2022-10-13T18:46:10.919Z,40.63
2022-10-13T18:48:58.167Z,46.90
2022-10-13T18:51:43.865Z,42.60
2022-10-13T18:54:29.942Z,41.33
2022-10-13T18:57:15.758Z,41.33
2022-10-13T19:00:02.214Z,50.30
2022-10-13T19:02:50.164Z,45.77
2022-10-13T19:05:39.475Z,43.37
2022-10-13T19:08:27.016Z,45.53
2022-10-13T19:11:14.086Z,51.43
2022-10-13T19:14:00.597Z,42.87
2022-10-13T19:16:46.491Z,55.20
2022-10-13T19:19:32.344Z,45.50
2022-10-13T19:22:19.080Z,43.33
2022-10-13T19:25:05.085Z,46.57
2022-10-13T19:27:50.664Z,45.03
2022-10-13T19:30:36.657Z,43.20
2022-10-13T19:33:22.409Z,48.00
2022-10-13T19:36:08.126Z,49.17
2022-10-13T19:38:55.007Z,47.80
2022-10-13T19:41:40.916Z,51.13
2022-10-13T19:44:27.912Z,46.43
2022-10-13T19:47:14.871Z,49.20
2022-10-13T19:50:00.603Z,45.47
2022-10-13T19:52:46.142Z,47.13
2022-10-13T19:55:37.491Z,42.70
2022-10-13T19:58:23.163Z,43.67
2022-10-13T20:01:10.171Z,42.63
2022-10-13T20:03:55.908Z,38.10
2022-10-13T20:06:41.456Z,38.27
2022-10-13T20:09:28.472Z,32.80
2022-10-13T20:12:14.387Z,39.37
2022-10-13T20:15:03.396Z,36.60
2022-10-13T20:17:48.984Z,31.47
2022-10-13T20:20:35.167Z,38.27
2022-10-13T20:23:20.869Z,34.60
2022-10-13T20:26:11.196Z,39.17
2022-10-13T20:28:58.113Z,33.87
2022-10-13T20:31:45.293Z,39.63
2022-10-13T20:34:30.880Z,33.60
2022-10-13T20:37:16.960Z,35.90
2022-10-13T20:40:02.853Z,31.47
2022-10-13T20:42:51.580Z,31.30
2022-10-13T20:45:39.268Z,29.30
2022-10-13T20:48:24.884Z,39.10
2022-10-13T20:51:13.418Z,29.80
2022-10-13T20:53:59.367Z,31.33
2022-10-13T20:56:47.067Z,30.47
2022-10-13T20:59:32.806Z,27.33
2022-10-13T21:02:18.652Z,30.00
2022-10-13T21:05:06.753Z,27.20
2022-10-13T21:07:53.488Z,27.80
2022-10-13T21:10:39.423Z,26.77
2022-10-13T21:13:25.515Z,24.90
2022-10-13T21:16:12.753Z,29.27
2022-10-13T21:18:59.643Z,22.97
2022-10-13T21:21:48.017Z,28.33
2022-10-13T21:24:33.820Z,21.03
2022-10-13T21:27:19.968Z,23.13
2022-10-13T21:30:06.799Z,22.83
2022-10-13T21:32:52.446Z,19.70
2022-10-13T21:35:37.974Z,23.47
2022-10-13T21:38:23.995Z,21.63
2022-10-13T21:41:10.835Z,23.93
2022-10-13T21:43:56.543Z,22.80
2022-10-13T21:46:42.405Z,23.37
2022-10-13T21:49:28.090Z,23.60
2022-10-13T21:52:14.493Z,26.93
2022-10-13T21:55:00.833Z,23.13
2022-10-13T21:57:46.676Z,26.70
2022-10-13T22:00:32.893Z,23.50
2022-10-13T22:03:18.644Z,25.53
2022-10-13T22:06:05.944Z,27.90
2022-10-13T22:08:53.133Z,27.40
2022-10-13T22:11:42.603Z,26.20
2022-10-13T22:14:32.548Z,27.37
2022-10-13T22:17:18.657Z,29.10
2022-10-13T22:20:04.931Z,28.90
2022-10-13T22:22:52.238Z,27.07
2022-10-13T22:25:44.520Z,27.10
2022-10-13T22:28:34.718Z,32.67
2022-10-13T22:31:22.913Z,28.43
2022-10-13T22:34:09.151Z,29.73
2022-10-13T22:36:55.411Z,29.60
2022-10-13T22:39:41.509Z,29.90
2022-10-13T22:42:27.885Z,28.97
2022-10-13T22:45:13.876Z,27.00
2022-10-13T22:47:59.991Z,29.37
2022-10-13T22:50:46.056Z,27.10
2022-10-13T22:53:32.408Z,33.07
2022-10-13T22:56:29.190Z,31.17
2022-10-13T22:59:15.340Z,27.50
2022-10-13T23:02:01.372Z,40.70
2022-10-13T23:04:49.195Z,30.23
2022-10-13T23:07:37.342Z,31.30
2022-10-13T23:10:23.467Z,35.33
2022-10-13T23:13:09.648Z,29.17
2022-10-13T23:15:58.142Z,31.43
2022-10-13T23:18:46.085Z,31.30
2022-10-13T23:21:45.656Z,32.07
2022-10-13T23:24:31.469Z,29.83
2022-10-13T23:27:17.618Z,34.63
2022-10-13T23:30:05.424Z,35.13
2022-10-13T23:32:51.226Z,31.80
2022-10-13T23:35:37.565Z,33.27
2022-10-13T23:38:24.188Z,32.23
2022-10-13T23:41:11.838Z,31.83
2022-10-13T23:43:59.111Z,31.47
2022-10-13T23:46:45.225Z,38.10
2022-10-13T23:49:33.136Z,33.73
2022-10-13T23:52:19.787Z,31.27
2022-10-13T23:55:05.949Z,30.90
2022-10-13T23:57:52.005Z,36.87
